Terminal Aerodrome Forecast
Issued by NWS Wilmington, NC

Current Version | Previous Version | Text Only | Print | Product List | Glossary On
Versions: 1 2 3 4 5 6 7 8 9 10 11 12
000
FTUS42 KILM 201700
TAFLBT
TAF
KLBT 201725Z 2018/2118 04006KT 6SM BR SCT009 OVC030
      TEMPO 2018/2021 5SM -RA BKN009
     FM210500 04003KT 4SM BR SCT020 BKN060
     FM211500 03008KT P6SM SCT040 BKN060=

USA.gov is the U.S. government's official web portal to all federal, state and local government web resources and services.